createdAt,value
2023-05-23T00:02:13.846Z,60.06
2023-05-23T00:07:16.400Z,60.34
2023-05-23T00:12:17.842Z,60.29
2023-05-23T00:17:19.748Z,60.63
2023-05-23T00:22:21.970Z,60.67
2023-05-23T00:27:23.985Z,61.96
2023-05-23T00:32:25.477Z,61.17
2023-05-23T00:37:26.956Z,61.34
2023-05-23T00:42:28.597Z,61.34
2023-05-23T00:47:30.130Z,61.70
2023-05-23T00:52:31.630Z,62.03
2023-05-23T00:57:39.654Z,61.97
2023-05-23T01:02:47.867Z,62.01
2023-05-23T01:07:51.184Z,62.30
2023-05-23T01:12:58.426Z,62.50
2023-05-23T01:18:10.060Z,62.85
2023-05-23T01:23:19.366Z,63.11
2023-05-23T01:28:23.206Z,62.74
2023-05-23T01:33:25.866Z,63.36
2023-05-23T01:38:27.316Z,63.60
2023-05-23T01:43:28.918Z,63.70
2023-05-23T01:48:32.098Z,64.00
2023-05-23T01:53:35.450Z,64.06
2023-05-23T01:58:37.040Z,65.12
2023-05-23T02:03:38.652Z,64.54
2023-05-23T02:08:40.239Z,64.80
2023-05-23T02:13:41.710Z,64.67
2023-05-23T02:18:46.152Z,64.58
2023-05-23T02:23:47.720Z,65.13
2023-05-23T02:28:49.168Z,64.77
2023-05-23T02:33:50.691Z,65.33
2023-05-23T02:38:52.474Z,65.88
2023-05-23T02:43:53.979Z,66.07
2023-05-23T02:48:55.581Z,65.88
2023-05-23T02:53:57.069Z,65.70
2023-05-23T02:58:58.517Z,66.32
2023-05-23T03:04:00.008Z,66.15
2023-05-23T03:09:01.698Z,66.39
2023-05-23T03:14:03.256Z,66.48
2023-05-23T03:19:04.953Z,66.63
2023-05-23T03:24:06.919Z,66.57
2023-05-23T03:29:10.931Z,66.68
2023-05-23T03:34:13.143Z,66.76
2023-05-23T03:39:14.708Z,66.41
2023-05-23T03:44:16.252Z,67.00
2023-05-23T03:49:17.809Z,66.66
2023-05-23T03:54:19.337Z,67.04
2023-05-23T03:59:20.939Z,66.70
2023-05-23T04:04:23.028Z,66.77
2023-05-23T04:09:24.585Z,67.25
2023-05-23T04:14:26.109Z,67.48
2023-05-23T04:19:27.795Z,66.80
2023-05-23T04:24:29.283Z,67.05
2023-05-23T04:29:31.734Z,66.90
2023-05-23T04:34:38.024Z,66.85
2023-05-23T04:39:39.659Z,67.10
2023-05-23T04:44:41.802Z,67.21
2023-05-23T04:49:43.514Z,66.62
2023-05-23T04:54:48.860Z,67.04
2023-05-23T04:59:50.702Z,66.57
2023-05-23T05:04:52.162Z,64.96
2023-05-23T05:09:53.644Z,65.25
2023-05-23T05:14:55.082Z,63.75
2023-05-23T05:19:56.899Z,62.69
2023-05-23T05:24:58.376Z,63.29
2023-05-23T05:30:04.805Z,61.83
2023-05-23T05:35:07.857Z,62.45
2023-05-23T05:40:09.968Z,61.76
2023-05-23T05:45:11.670Z,61.40
2023-05-23T05:50:13.144Z,60.50
2023-05-23T05:55:14.759Z,61.09
2023-05-23T06:00:18.867Z,60.19
2023-05-23T06:05:20.348Z,60.14
2023-05-23T06:10:21.804Z,59.06
2023-05-23T06:15:23.717Z,59.58
2023-05-23T06:20:25.785Z,60.18
2023-05-23T06:25:27.490Z,58.59
2023-05-23T06:30:29.588Z,59.27
2023-05-23T06:35:31.386Z,59.47
2023-05-23T06:40:32.839Z,58.83
2023-05-23T06:45:35.893Z,59.64
2023-05-23T06:50:37.462Z,59.18
2023-05-23T06:55:38.945Z,56.64
2023-05-23T07:00:40.576Z,56.43
2023-05-23T07:05:42.217Z,56.79
2023-05-23T07:10:43.789Z,56.48
2023-05-23T07:15:45.757Z,56.38
2023-05-23T07:20:47.223Z,54.34
2023-05-23T07:26:01.127Z,53.78
2023-05-23T07:31:03.717Z,52.83
2023-05-23T07:36:05.238Z,53.13
2023-05-23T07:41:11.420Z,54.27
2023-05-23T07:46:13.649Z,54.18
2023-05-23T07:51:15.705Z,54.68
2023-05-23T07:56:17.192Z,54.71
2023-05-23T08:01:18.777Z,53.84
2023-05-23T08:06:20.245Z,54.52
2023-05-23T08:11:21.730Z,54.78
2023-05-23T08:16:23.234Z,54.49
2023-05-23T08:21:24.773Z,54.37
2023-05-23T08:26:27.952Z,53.73
2023-05-23T08:31:30.196Z,55.11
2023-05-23T08:36:36.456Z,54.55
2023-05-23T08:41:39.493Z,55.28
2023-05-23T08:46:46.854Z,55.75
2023-05-23T08:51:52.238Z,56.04
2023-05-23T08:56:53.799Z,56.25
2023-05-23T09:01:57.124Z,58.18
2023-05-23T09:06:59.204Z,57.46
2023-05-23T09:12:01.024Z,59.25
2023-05-23T09:17:05.534Z,59.64
2023-05-23T09:22:07.040Z,66.26
2023-05-23T09:27:08.812Z,67.01
2023-05-23T09:32:17.234Z,65.28
2023-05-23T09:37:19.416Z,65.78
2023-05-23T09:42:25.252Z,69.41
2023-05-23T09:47:29.870Z,70.51
2023-05-23T09:52:41.101Z,71.26
2023-05-23T09:57:45.390Z,74.22
2023-05-23T10:03:15.057Z,76.19
2023-05-23T10:08:26.700Z,79.97
2023-05-23T10:13:28.933Z,78.08
2023-05-23T10:18:36.763Z,80.92
2023-05-23T10:23:39.305Z,79.25
2023-05-23T10:28:42.138Z,78.30
2023-05-23T10:33:50.811Z,76.86
2023-05-23T10:39:16.964Z,79.08
2023-05-23T10:44:27.283Z,79.01
2023-05-23T10:49:39.995Z,73.39
2023-05-23T10:54:43.192Z,71.18
2023-05-23T10:59:47.056Z,71.23
2023-05-23T11:05:25.049Z,69.42
2023-05-23T11:10:28.948Z,70.01
2023-05-23T11:15:42.724Z,67.73
2023-05-23T11:20:45.172Z,68.84
2023-05-23T11:25:52.189Z,66.30
2023-05-23T11:30:53.709Z,66.38
2023-05-23T11:35:55.422Z,66.20
2023-05-23T11:40:56.981Z,66.30
2023-05-23T11:46:07.542Z,65.76
2023-05-23T11:51:09.116Z,65.65
2023-05-23T11:56:10.676Z,61.48
2023-05-23T12:01:13.807Z,63.68
2023-05-23T12:06:16.615Z,62.01
2023-05-23T12:11:18.913Z,62.68
2023-05-23T12:16:21.251Z,60.83
2023-05-23T12:21:26.306Z,61.50
2023-05-23T12:26:27.759Z,62.65
2023-05-23T12:31:29.404Z,62.53
2023-05-23T12:36:32.529Z,63.66
2023-05-23T12:41:34.066Z,63.03
2023-05-23T12:46:35.735Z,65.62
2023-05-23T12:51:37.269Z,63.63
2023-05-23T12:56:39.811Z,62.57
2023-05-23T13:01:41.697Z,62.78
2023-05-23T13:06:43.372Z,62.52
2023-05-23T13:11:44.894Z,62.19
2023-05-23T13:16:46.608Z,63.91
2023-05-23T13:21:49.533Z,64.12
2023-05-23T13:26:51.491Z,64.06
2023-05-23T13:31:53.798Z,62.78
2023-05-23T13:36:55.678Z,60.30
2023-05-23T13:41:57.188Z,60.35
2023-05-23T13:47:12.810Z,61.38
2023-05-23T13:52:14.987Z,60.31
2023-05-23T13:57:16.953Z,59.72
2023-05-23T14:02:18.566Z,58.57
2023-05-23T14:07:20.025Z,58.00
2023-05-23T14:12:21.453Z,57.27
2023-05-23T14:17:23.118Z,57.63
2023-05-23T14:22:24.675Z,57.44
2023-05-23T14:27:27.018Z,58.08
2023-05-23T14:32:28.639Z,58.39
2023-05-23T14:37:30.245Z,59.06
2023-05-23T14:42:31.709Z,58.38
2023-05-23T14:47:33.246Z,58.61
2023-05-23T14:52:34.755Z,58.40
2023-05-23T14:57:36.248Z,58.27
2023-05-23T15:02:37.821Z,58.71
2023-05-23T15:07:39.342Z,59.25
2023-05-23T15:12:41.196Z,61.55
2023-05-23T15:17:42.679Z,61.31
2023-05-23T15:22:44.166Z,61.45
2023-05-23T15:27:45.812Z,61.45
2023-05-23T15:32:47.776Z,61.75
2023-05-23T15:37:49.447Z,61.28
2023-05-23T15:42:51.222Z,60.98
2023-05-23T15:47:52.722Z,61.30
2023-05-23T15:52:54.236Z,61.36
2023-05-23T15:57:55.715Z,61.58
2023-05-23T16:02:57.237Z,61.24
2023-05-23T16:07:58.751Z,61.32
2023-05-23T16:13:00.528Z,61.65
2023-05-23T16:18:03.151Z,61.71
2023-05-23T16:23:04.839Z,61.91
2023-05-23T16:28:06.572Z,61.80
2023-05-23T16:33:08.067Z,62.04
2023-05-23T16:38:09.767Z,61.84
2023-05-23T16:43:12.232Z,62.45
2023-05-23T16:48:13.821Z,62.79
2023-05-23T16:53:15.667Z,62.84
2023-05-23T16:58:20.066Z,63.78
2023-05-23T17:03:22.852Z,63.05
2023-05-23T17:08:24.351Z,63.82
2023-05-23T17:13:26.046Z,65.05
2023-05-23T17:18:27.533Z,64.39
2023-05-23T17:23:29.068Z,66.10
2023-05-23T17:28:30.516Z,65.97
2023-05-23T17:33:31.978Z,67.15
2023-05-23T17:38:33.493Z,70.87
2023-05-23T17:43:34.965Z,70.95
2023-05-23T17:48:46.917Z,71.30
2023-05-23T17:53:53.501Z,70.56
2023-05-23T17:58:54.991Z,74.01
2023-05-23T18:03:56.572Z,74.14
2023-05-23T18:08:58.106Z,75.97
2023-05-23T18:13:59.570Z,77.18
2023-05-23T18:19:01.148Z,75.18
2023-05-23T18:24:04.026Z,74.30
2023-05-23T18:29:05.539Z,75.04
2023-05-23T18:34:07.144Z,74.79
2023-05-23T18:39:09.843Z,75.35
2023-05-23T18:44:11.359Z,77.35
2023-05-23T18:49:12.798Z,82.52
2023-05-23T18:54:14.389Z,79.78
2023-05-23T18:59:16.918Z,79.82
2023-05-23T19:04:18.486Z,80.71
2023-05-23T19:09:20.066Z,79.91
2023-05-23T19:14:21.873Z,80.62
2023-05-23T19:19:23.360Z,79.39
2023-05-23T19:24:24.894Z,81.16
2023-05-23T19:29:26.738Z,80.93
2023-05-23T19:34:28.423Z,80.19
2023-05-23T19:39:29.867Z,80.85
2023-05-23T19:44:31.518Z,80.87
2023-05-23T19:49:33.063Z,79.75
2023-05-23T19:54:34.709Z,79.52
2023-05-23T19:59:36.277Z,79.97
2023-05-23T20:04:37.741Z,79.81
2023-05-23T20:09:39.196Z,80.86
2023-05-23T20:14:40.980Z,84.64
2023-05-23T20:19:42.693Z,84.02
2023-05-23T20:24:44.159Z,83.72
2023-05-23T20:29:45.651Z,84.83
2023-05-23T20:34:47.141Z,84.71
2023-05-23T20:39:48.658Z,86.25
2023-05-23T20:44:50.135Z,84.96
2023-05-23T20:49:51.608Z,85.31
2023-05-23T20:54:54.497Z,85.56
2023-05-23T20:59:56.235Z,87.43
2023-05-23T21:04:57.675Z,86.01
2023-05-23T21:09:59.425Z,87.56
2023-05-23T21:15:01.068Z,87.82
2023-05-23T21:20:02.698Z,88.73
2023-05-23T21:25:05.009Z,93.32
2023-05-23T21:30:07.286Z,90.27
2023-05-23T21:35:09.086Z,89.91
2023-05-23T21:40:10.768Z,90.97
2023-05-23T21:45:12.284Z,91.37
2023-05-23T21:50:13.721Z,91.31
2023-05-23T21:55:15.269Z,91.83
2023-05-23T22:00:18.894Z,92.30
2023-05-23T22:05:20.627Z,93.30
2023-05-23T22:10:22.180Z,95.11
2023-05-23T22:15:23.667Z,94.23
2023-05-23T22:20:25.372Z,94.05
2023-05-23T22:25:27.251Z,94.27
2023-05-23T22:30:28.950Z,96.89
2023-05-23T22:35:31.106Z,96.15
2023-05-23T22:40:32.969Z,96.30
2023-05-23T22:45:40.488Z,94.22
2023-05-23T22:50:42.189Z,91.31
2023-05-23T22:55:43.859Z,91.86
2023-05-23T23:00:45.672Z,92.33
2023-05-23T23:05:47.387Z,92.17
2023-05-23T23:10:48.902Z,92.18
2023-05-23T23:15:50.640Z,90.07
2023-05-23T23:20:52.249Z,91.63
2023-05-23T23:25:53.759Z,92.70
2023-05-23T23:30:55.418Z,92.89
2023-05-23T23:35:57.691Z,92.53
2023-05-23T23:40:59.155Z,92.48
2023-05-23T23:46:00.762Z,92.14
2023-05-23T23:51:02.422Z,90.73
2023-05-23T23:56:04.006Z,95.67
